createdAt,value
2017-01-13T00:03:16.939Z,986.02
2017-01-13T00:08:16.901Z,985.91
2017-01-13T00:13:16.869Z,985.89
2017-01-13T00:18:16.833Z,985.83
2017-01-13T00:23:16.801Z,985.82
2017-01-13T00:28:16.765Z,985.76
2017-01-13T00:33:16.733Z,985.74
2017-01-13T00:38:16.695Z,985.79
2017-01-13T00:43:16.664Z,985.8
2017-01-13T00:48:16.627Z,985.9
2017-01-13T00:53:16.601Z,985.99
2017-01-13T00:58:16.559Z,986.02
2017-01-13T01:03:16.534Z,985.99
2017-01-13T01:08:16.491Z,986.17
2017-01-13T01:13:16.455Z,986.21
2017-01-13T01:18:16.421Z,986.29
2017-01-13T01:23:16.387Z,986.43
2017-01-13T01:28:16.355Z,986.48
2017-01-13T01:33:16.317Z,986.69
2017-01-13T01:38:16.285Z,986.8
2017-01-13T01:43:16.257Z,986.93
2017-01-13T01:48:16.221Z,987
2017-01-13T01:53:16.181Z,987.16
2017-01-13T01:58:16.147Z,987.26
2017-01-13T02:03:16.115Z,987.4
2017-01-13T02:08:16.079Z,987.59
2017-01-13T02:13:16.045Z,987.7
2017-01-13T02:18:16.011Z,987.86
2017-01-13T02:23:15.977Z,988.12
2017-01-13T02:28:15.941Z,988.26
2017-01-13T02:33:15.907Z,988.46
2017-01-13T02:38:15.874Z,988.59
2017-01-13T02:43:15.840Z,988.83
2017-01-13T02:48:15.801Z,989.04
2017-01-13T02:53:15.765Z,989.22
2017-01-13T02:58:15.732Z,989.27
2017-01-13T03:03:15.693Z,989.43
2017-01-13T03:08:15.662Z,989.53
2017-01-13T03:13:15.623Z,989.65
2017-01-13T03:18:15.587Z,989.85
2017-01-13T03:23:15.553Z,990.06
2017-01-13T03:28:15.517Z,990.36
2017-01-13T03:33:15.478Z,990.55
2017-01-13T03:38:15.446Z,990.62
2017-01-13T03:43:15.407Z,990.76
2017-01-13T03:48:15.379Z,990.52
2017-01-13T03:53:15.336Z,990.71
2017-01-13T03:58:15.314Z,990.96
2017-01-13T04:03:15.264Z,991.21
2017-01-13T04:08:15.228Z,991.45
2017-01-13T04:13:15.190Z,991.74
2017-01-13T04:18:15.155Z,992
2017-01-13T04:23:15.119Z,992.23
2017-01-13T04:28:15.080Z,992.35
2017-01-13T04:33:15.046Z,992.5
2017-01-13T04:38:15.006Z,992.58
2017-01-13T04:43:14.970Z,992.76
2017-01-13T04:48:14.932Z,993.01
2017-01-13T04:53:14.894Z,993.22
2017-01-13T04:58:14.858Z,993.23
2017-01-13T05:03:14.821Z,993.25
2017-01-13T05:08:14.782Z,993.34
2017-01-13T05:13:14.743Z,993.52
2017-01-13T05:18:14.707Z,993.71
2017-01-13T05:23:14.669Z,994
2017-01-13T05:28:14.632Z,994.2
2017-01-13T05:33:14.592Z,994.42
2017-01-13T05:38:14.557Z,994.53
2017-01-13T05:43:14.516Z,994.66
2017-01-13T05:48:14.477Z,994.77
2017-01-13T05:53:14.442Z,994.92
2017-01-13T05:58:14.402Z,995.05
2017-01-13T06:03:14.366Z,995.2
2017-01-13T06:08:14.325Z,995.46
2017-01-13T06:13:14.291Z,995.59
2017-01-13T06:18:14.248Z,995.65
2017-01-13T06:23:14.206Z,995.66
2017-01-13T06:28:14.168Z,995.82
2017-01-13T06:33:14.129Z,995.97
2017-01-13T06:38:14.093Z,996.14
2017-01-13T06:43:14.054Z,996.22
2017-01-13T06:48:14.026Z,996.4
2017-01-13T06:53:13.997Z,996.48
2017-01-13T06:58:13.971Z,996.63
2017-01-13T07:03:13.943Z,996.8
2017-01-13T07:08:13.921Z,996.94
2017-01-13T07:13:13.899Z,997.04
2017-01-13T07:18:13.876Z,997.16
2017-01-13T07:23:13.855Z,997.35
2017-01-13T07:28:13.833Z,997.47
2017-01-13T07:33:13.812Z,997.54
2017-01-13T07:38:13.787Z,997.71
2017-01-13T07:43:13.766Z,997.89
2017-01-13T07:48:13.744Z,998.06
2017-01-13T07:53:13.718Z,998.3
2017-01-13T07:58:13.692Z,998.46
2017-01-13T08:03:13.667Z,998.65
2017-01-13T08:08:13.646Z,998.66
2017-01-13T08:13:13.614Z,998.68
2017-01-13T08:18:13.596Z,998.92
2017-01-13T08:23:13.560Z,999.07
2017-01-13T08:28:13.534Z,999.17
2017-01-13T08:33:13.508Z,999.34
2017-01-13T08:38:13.483Z,999.4
2017-01-13T08:43:13.457Z,999.53
2017-01-13T08:48:13.433Z,999.5
2017-01-13T08:53:13.407Z,999.56
2017-01-13T08:58:13.381Z,999.73
2017-01-13T09:03:13.356Z,999.81
2017-01-13T09:08:13.330Z,999.81
2017-01-13T09:13:13.307Z,999.87
2017-01-13T09:18:13.283Z,999.94
2017-01-13T09:23:13.259Z,1000.02
2017-01-13T09:28:13.256Z,1000.16
2017-01-13T09:33:13.207Z,1000.27
2017-01-13T09:38:13.185Z,1000.23
2017-01-13T09:43:13.157Z,1000.25
2017-01-13T09:48:13.131Z,1000.37
2017-01-13T09:53:13.112Z,1000.54
2017-01-13T09:58:13.083Z,1000.59
2017-01-13T10:03:13.060Z,1000.72
2017-01-13T10:08:13.040Z,1000.68
2017-01-13T10:13:13.020Z,1000.71
2017-01-13T10:18:12.999Z,1000.69
2017-01-13T10:23:12.978Z,1000.74
2017-01-13T10:28:12.958Z,1000.73
2017-01-13T10:33:12.936Z,1000.79
2017-01-13T10:38:12.920Z,1000.8
2017-01-13T10:43:12.903Z,1000.82
2017-01-13T10:48:12.882Z,1000.76
2017-01-13T10:53:12.869Z,1000.75
2017-01-13T10:58:12.848Z,1000.81
2017-01-13T11:03:12.831Z,1000.82
2017-01-13T11:08:12.816Z,1000.82
2017-01-13T11:13:12.797Z,1000.86
2017-01-13T11:18:12.780Z,1000.94
2017-01-13T11:23:12.764Z,1001.05
2017-01-13T11:28:12.760Z,1001.08
2017-01-13T11:33:12.765Z,1001.27
2017-01-13T11:38:12.772Z,1001.25
2017-01-13T11:43:12.784Z,1001.04
2017-01-13T11:48:12.796Z,1001.25
2017-01-13T11:53:12.798Z,1001.22
2017-01-13T11:58:12.808Z,1001.18
2017-01-13T12:03:12.821Z,1001.11
2017-01-13T12:08:12.834Z,1001
2017-01-13T12:13:12.840Z,1000.91
2017-01-13T12:18:12.844Z,1000.98
2017-01-13T12:23:12.851Z,1000.95
2017-01-13T12:28:12.844Z,1000.98
2017-01-13T12:33:12.840Z,1000.89
2017-01-13T12:38:12.840Z,1001
2017-01-13T12:43:12.837Z,1001.17
2017-01-13T12:48:12.831Z,1001.17
2017-01-13T12:53:12.823Z,1001.05
2017-01-13T12:58:12.817Z,1000.97
2017-01-13T13:03:12.805Z,1001.12
2017-01-13T13:08:12.799Z,1001.15
2017-01-13T13:13:12.779Z,1001.04
2017-01-13T13:18:12.769Z,1001.07
2017-01-13T13:23:12.753Z,1001.19
2017-01-13T13:28:12.742Z,1001.12
2017-01-13T13:33:12.724Z,1001.14
2017-01-13T13:38:12.708Z,1001.17
2017-01-13T13:43:12.700Z,1001.12
2017-01-13T13:48:12.676Z,1001.22
2017-01-13T13:53:12.663Z,1001.27
2017-01-13T13:58:12.645Z,1001.23
2017-01-13T14:03:12.632Z,1001.25
2017-01-13T14:08:12.614Z,1001.22
2017-01-13T14:13:12.598Z,1001.15
2017-01-13T14:18:12.592Z,1001.35
2017-01-13T14:23:12.566Z,1001.07
2017-01-13T14:28:12.550Z,1001
2017-01-13T14:33:12.538Z,1000.9
2017-01-13T14:38:12.519Z,1001.02
2017-01-13T14:43:12.505Z,1001.02
2017-01-13T14:48:12.489Z,1000.99
2017-01-13T14:53:12.473Z,1000.85
2017-01-13T14:58:12.452Z,1000.85
2017-01-13T15:03:12.433Z,1000.78
2017-01-13T15:08:12.416Z,1000.8
2017-01-13T15:13:12.395Z,1000.73
2017-01-13T15:18:12.377Z,1000.66
2017-01-13T15:23:12.357Z,1000.51
2017-01-13T15:28:12.341Z,1000.56
2017-01-13T15:33:12.316Z,1000.52
2017-01-13T15:38:12.295Z,1000.48
2017-01-13T15:43:12.275Z,1000.57
2017-01-13T15:48:12.255Z,1000.47
2017-01-13T15:53:12.233Z,1000.46
2017-01-13T15:58:12.211Z,1000.42
2017-01-13T16:03:12.192Z,1000.52
2017-01-13T16:08:12.180Z,1000.41
2017-01-13T16:13:12.150Z,1000.39
2017-01-13T16:18:12.127Z,1000.33
2017-01-13T16:23:12.110Z,1000.43
2017-01-13T16:28:12.086Z,1000.42
2017-01-13T16:33:12.067Z,1000.41
2017-01-13T16:38:12.042Z,1000.5
2017-01-13T16:43:12.022Z,1000.5
2017-01-13T16:48:12.006Z,1000.49
2017-01-13T16:53:11.990Z,1000.57
2017-01-13T16:58:11.961Z,1000.31
2017-01-13T17:03:11.939Z,1000.5
2017-01-13T17:08:11.916Z,1000.43
2017-01-13T17:13:11.899Z,1000.57
2017-01-13T17:18:11.872Z,1000.63
2017-01-13T17:23:11.849Z,1000.6
2017-01-13T17:28:11.825Z,1000.39
2017-01-13T17:33:11.801Z,1000.44
2017-01-13T17:38:11.779Z,1000.46
2017-01-13T17:43:11.753Z,1000.53
2017-01-13T17:48:11.731Z,1000.47
2017-01-13T17:53:11.702Z,1000.58
2017-01-13T17:58:11.677Z,1000.61
2017-01-13T18:03:11.651Z,1000.46
2017-01-13T18:08:11.627Z,1000.55
2017-01-13T18:13:11.602Z,1000.57
2017-01-13T18:18:11.576Z,1000.76
2017-01-13T18:23:11.551Z,1000.68
2017-01-13T18:28:11.528Z,1000.55
2017-01-13T18:33:11.503Z,1000.65
2017-01-13T18:38:11.485Z,1000.66
2017-01-13T18:43:11.453Z,1000.64
2017-01-13T18:48:11.430Z,1000.79
2017-01-13T18:53:11.411Z,1000.86
2017-01-13T18:58:11.388Z,1000.88
2017-01-13T19:03:11.368Z,1000.96
2017-01-13T19:08:11.349Z,1001.02
2017-01-13T19:13:11.328Z,1001.06
2017-01-13T19:18:11.310Z,1001.06
2017-01-13T19:23:11.290Z,1001.01
2017-01-13T19:28:11.273Z,1001.14
2017-01-13T19:33:11.254Z,1001.21
2017-01-13T19:38:11.238Z,1001.37
2017-01-13T19:43:11.213Z,1001.44
2017-01-13T19:48:11.223Z,1001.57
2017-01-13T19:53:11.207Z,1001.65
2017-01-13T19:58:11.194Z,1001.8
2017-01-13T20:03:11.134Z,1001.9
2017-01-13T20:08:11.109Z,1002.07
2017-01-13T20:13:11.125Z,1001.97
2017-01-13T20:18:11.063Z,1001.98
2017-01-13T20:23:11.040Z,1002.2
2017-01-13T20:28:11.015Z,1002.2
2017-01-13T20:33:11.042Z,1002.27
2017-01-13T20:38:11.003Z,1002.43
2017-01-13T20:43:10.944Z,1002.3
2017-01-13T20:48:10.949Z,1002.28
2017-01-13T20:53:10.939Z,1002.37
2017-01-13T20:58:10.871Z,1002.36
2017-01-13T21:03:10.867Z,1002.59
2017-01-13T21:08:10.841Z,1002.77
2017-01-13T21:13:10.801Z,1002.85
2017-01-13T21:18:10.771Z,1002.86
2017-01-13T21:23:10.745Z,1003.03
2017-01-13T21:28:10.717Z,1002.99
2017-01-13T21:33:10.691Z,1003.06
2017-01-13T21:38:10.662Z,1003.19
2017-01-13T21:43:10.638Z,1003.25
2017-01-13T21:48:10.615Z,1003.29
2017-01-13T21:53:10.584Z,1003.49
2017-01-13T21:58:10.558Z,1003.57
2017-01-13T22:03:10.533Z,1003.74
2017-01-13T22:08:10.509Z,1003.92
2017-01-13T22:13:10.484Z,1003.92
2017-01-13T22:18:10.454Z,1004.24
2017-01-13T22:23:10.428Z,1004.29
2017-01-13T22:28:10.405Z,1004.2
2017-01-13T22:33:10.375Z,1004.32
2017-01-13T22:38:10.349Z,1004.39
2017-01-13T22:43:10.321Z,1004.54
2017-01-13T22:48:10.299Z,1004.56
2017-01-13T22:53:10.263Z,1004.58
2017-01-13T22:58:10.235Z,1004.7
2017-01-13T23:03:10.203Z,1004.84
2017-01-13T23:08:10.170Z,1004.88
2017-01-13T23:13:10.141Z,1004.99
2017-01-13T23:18:10.109Z,1005.08
2017-01-13T23:23:10.077Z,1005.12
2017-01-13T23:28:10.045Z,1005.27
2017-01-13T23:33:10.009Z,1005.32
2017-01-13T23:38:09.980Z,1005.39
2017-01-13T23:43:09.944Z,1005.38
2017-01-13T23:48:09.910Z,1005.44
2017-01-13T23:53:09.876Z,1005.63
2017-01-13T23:58:09.840Z,1005.7
